createdAt,value
2022-12-02T00:02:35.625Z,21.23
2022-12-02T00:05:11.067Z,23.80
2022-12-02T00:07:38.176Z,22.30
2022-12-02T00:10:24.697Z,22.70
2022-12-02T00:12:54.098Z,21.90
2022-12-02T00:15:45.930Z,20.77
2022-12-02T00:18:15.725Z,24.00
2022-12-02T00:20:44.666Z,22.10
2022-12-02T00:23:13.703Z,21.97
2022-12-02T00:25:43.278Z,22.23
2022-12-02T00:28:10.424Z,22.73
2022-12-02T00:30:37.477Z,22.60
2022-12-02T00:33:04.645Z,23.07
2022-12-02T00:35:35.094Z,22.50
2022-12-02T00:38:06.146Z,22.67
2022-12-02T00:40:36.168Z,22.13
2022-12-02T00:43:22.151Z,21.80
2022-12-02T00:46:08.168Z,20.83
2022-12-02T00:48:35.974Z,22.70
2022-12-02T00:51:03.407Z,22.47
2022-12-02T00:53:30.252Z,23.93
2022-12-02T00:55:57.048Z,22.00
2022-12-02T00:58:23.963Z,21.30
2022-12-02T01:00:51.021Z,21.23
2022-12-02T01:03:17.836Z,21.57
2022-12-02T01:05:44.599Z,24.10
2022-12-02T01:08:11.457Z,23.60
2022-12-02T01:10:38.333Z,22.83
2022-12-02T01:13:05.126Z,21.70
2022-12-02T01:15:32.008Z,21.67
2022-12-02T01:17:58.730Z,22.00
2022-12-02T01:20:25.465Z,21.33
2022-12-02T01:22:52.533Z,21.90
2022-12-02T01:25:19.607Z,22.23
2022-12-02T01:27:46.555Z,21.63
2022-12-02T01:30:14.217Z,21.40
2022-12-02T01:32:40.995Z,20.80
2022-12-02T01:35:08.319Z,22.20
2022-12-02T01:37:35.088Z,21.67
2022-12-02T01:40:02.403Z,23.30
2022-12-02T01:42:29.279Z,21.80
2022-12-02T01:44:56.048Z,23.20
2022-12-02T01:47:23.008Z,21.87
2022-12-02T01:49:51.072Z,22.37
2022-12-02T01:52:18.065Z,22.33
2022-12-02T01:54:44.849Z,20.30
2022-12-02T01:57:14.159Z,22.20
2022-12-02T01:59:43.168Z,21.07
2022-12-02T02:02:31.127Z,24.80
2022-12-02T02:05:04.994Z,21.60
2022-12-02T02:07:33.582Z,20.13
2022-12-02T02:10:00.565Z,23.20
2022-12-02T02:12:27.439Z,21.60
2022-12-02T02:14:54.677Z,19.73
2022-12-02T02:17:21.523Z,22.40
2022-12-02T02:19:48.666Z,20.43
2022-12-02T02:22:26.373Z,20.07
2022-12-02T02:24:53.446Z,22.27
2022-12-02T02:27:20.409Z,21.90
2022-12-02T02:29:47.235Z,21.57
2022-12-02T02:32:14.080Z,21.33
2022-12-02T02:34:41.199Z,20.70
2022-12-02T02:37:07.945Z,21.37
2022-12-02T02:39:34.689Z,21.03
2022-12-02T02:42:01.709Z,19.73
2022-12-02T02:44:29.430Z,21.97
2022-12-02T02:46:57.428Z,20.17
2022-12-02T02:49:24.795Z,20.37
2022-12-02T02:51:51.709Z,21.67
2022-12-02T02:54:18.585Z,22.60
2022-12-02T02:56:45.435Z,20.50
2022-12-02T02:59:16.880Z,21.67
2022-12-02T03:01:46.505Z,21.03
2022-12-02T03:04:16.485Z,21.70
2022-12-02T03:06:45.346Z,22.00
2022-12-02T03:09:14.700Z,18.73
2022-12-02T03:11:42.622Z,20.90
2022-12-02T03:14:15.515Z,20.03
2022-12-02T03:16:43.598Z,20.73
2022-12-02T03:19:10.967Z,21.33
2022-12-02T03:21:38.024Z,20.80
2022-12-02T03:24:06.453Z,20.40
2022-12-02T03:26:34.756Z,21.33
2022-12-02T03:29:03.223Z,20.67
2022-12-02T03:31:33.165Z,20.57
2022-12-02T03:34:06.692Z,22.07
2022-12-02T03:36:36.799Z,19.80
2022-12-02T03:39:04.619Z,21.67
2022-12-02T03:41:31.735Z,21.67
2022-12-02T03:43:59.243Z,21.43
2022-12-02T03:46:27.498Z,21.30
2022-12-02T03:48:55.291Z,21.47
2022-12-02T03:51:22.145Z,19.90
2022-12-02T03:53:49.076Z,22.23
2022-12-02T03:56:15.940Z,20.77
2022-12-02T03:58:48.927Z,21.40
2022-12-02T04:01:16.160Z,20.43
2022-12-02T04:03:43.547Z,22.80
2022-12-02T04:06:11.558Z,21.03
2022-12-02T04:08:38.714Z,21.33
2022-12-02T04:11:06.228Z,21.10
2022-12-02T04:13:33.271Z,21.50
2022-12-02T04:16:00.005Z,21.30
2022-12-02T04:18:26.811Z,20.30
2022-12-02T04:20:53.571Z,22.27
2022-12-02T04:23:20.407Z,19.00
2022-12-02T04:25:47.192Z,20.97
2022-12-02T04:28:13.924Z,21.17
2022-12-02T04:30:40.586Z,21.50
2022-12-02T04:33:07.325Z,22.60
2022-12-02T04:35:34.024Z,21.00
2022-12-02T04:38:00.764Z,20.90
2022-12-02T04:40:27.528Z,21.80
2022-12-02T04:42:54.383Z,19.50
2022-12-02T04:45:21.078Z,20.63
2022-12-02T04:47:47.849Z,23.73
2022-12-02T04:50:14.590Z,19.47
2022-12-02T04:52:41.345Z,20.40
2022-12-02T04:55:08.527Z,21.63
2022-12-02T04:57:35.316Z,21.50
2022-12-02T05:00:02.175Z,20.27
2022-12-02T05:02:28.857Z,20.57
2022-12-02T05:04:55.788Z,20.23
2022-12-02T05:07:22.906Z,19.80
2022-12-02T05:09:49.706Z,20.77
2022-12-02T05:12:16.448Z,20.50
2022-12-02T05:14:43.296Z,18.40
2022-12-02T05:17:10.073Z,23.27
2022-12-02T05:19:36.845Z,20.03
2022-12-02T05:22:03.527Z,21.70
2022-12-02T05:24:30.259Z,20.57
2022-12-02T05:26:57.040Z,21.47
2022-12-02T05:29:24.066Z,22.83
2022-12-02T05:31:50.808Z,20.17
2022-12-02T05:34:17.638Z,21.47
2022-12-02T05:36:44.484Z,20.00
2022-12-02T05:39:11.433Z,21.53
2022-12-02T05:41:38.601Z,21.00
2022-12-02T05:44:23.470Z,21.03
2022-12-02T05:46:51.165Z,21.20
2022-12-02T05:49:23.728Z,21.07
2022-12-02T05:51:57.334Z,21.47
2022-12-02T05:54:25.768Z,22.27
2022-12-02T05:56:52.722Z,20.77
2022-12-02T05:59:21.829Z,21.30
2022-12-02T06:01:51.766Z,23.67
2022-12-02T06:04:24.457Z,22.20
2022-12-02T06:07:02.273Z,21.33
2022-12-02T06:09:32.233Z,23.50
2022-12-02T06:12:00.646Z,22.70
2022-12-02T06:14:33.047Z,23.80
2022-12-02T06:17:02.376Z,22.93
2022-12-02T06:19:41.214Z,24.33
2022-12-02T06:22:18.817Z,23.30
2022-12-02T06:24:45.955Z,22.90
2022-12-02T06:27:14.680Z,23.60
2022-12-02T06:30:02.947Z,24.43
2022-12-02T06:32:37.284Z,24.20
2022-12-02T06:35:16.438Z,23.70
2022-12-02T06:37:43.635Z,22.40
2022-12-02T06:40:37.440Z,22.70
2022-12-02T06:43:15.071Z,22.23
2022-12-02T06:45:42.883Z,23.27
2022-12-02T06:48:28.803Z,23.53
2022-12-02T06:50:58.179Z,24.47
2022-12-02T06:53:38.094Z,24.70
2022-12-02T06:56:06.892Z,23.87
2022-12-02T06:58:43.164Z,22.63
2022-12-02T07:01:28.753Z,23.73
2022-12-02T07:04:03.229Z,24.10
2022-12-02T07:06:32.165Z,25.63
2022-12-02T07:09:17.929Z,24.63
2022-12-02T07:11:51.580Z,26.30
2022-12-02T07:14:51.923Z,24.27
2022-12-02T07:17:24.008Z,24.77
2022-12-02T07:19:56.213Z,25.07
2022-12-02T07:22:32.978Z,23.90
2022-12-02T07:25:17.194Z,22.20
2022-12-02T07:27:48.060Z,24.20
2022-12-02T07:30:32.243Z,22.97
2022-12-02T07:32:59.990Z,23.10
2022-12-02T07:35:27.427Z,23.17
2022-12-02T07:37:54.435Z,25.00
2022-12-02T07:40:21.499Z,23.67
2022-12-02T07:42:48.305Z,23.73
2022-12-02T07:45:17.475Z,23.63
2022-12-02T07:47:44.955Z,24.77
2022-12-02T07:50:13.775Z,24.53
2022-12-02T07:52:40.615Z,26.00
2022-12-02T07:55:07.925Z,25.70
2022-12-02T07:57:35.180Z,25.90
2022-12-02T08:00:04.786Z,25.03
2022-12-02T08:02:31.611Z,26.30
2022-12-02T08:04:58.521Z,27.10
2022-12-02T08:07:25.261Z,25.00
2022-12-02T08:09:52.135Z,24.80
2022-12-02T08:12:18.959Z,25.00
2022-12-02T08:14:45.736Z,25.47
2022-12-02T08:17:12.888Z,22.03
2022-12-02T08:19:41.412Z,23.97
2022-12-02T08:22:08.554Z,23.77
2022-12-02T08:24:35.863Z,25.90
2022-12-02T08:27:02.663Z,24.20
2022-12-02T08:29:30.476Z,24.90
2022-12-02T08:31:57.552Z,24.43
2022-12-02T08:34:24.341Z,25.23
2022-12-02T08:36:51.145Z,25.07
2022-12-02T08:39:17.972Z,24.20
2022-12-02T08:41:44.711Z,24.13
2022-12-02T08:44:11.560Z,26.40
2022-12-02T08:46:38.567Z,25.33
2022-12-02T08:49:06.474Z,25.10
2022-12-02T08:51:34.211Z,25.30
2022-12-02T08:54:01.329Z,26.03
2022-12-02T08:56:28.104Z,27.20
2022-12-02T08:58:54.886Z,25.30
2022-12-02T09:01:21.744Z,26.30
2022-12-02T09:03:48.716Z,25.90
2022-12-02T09:06:15.652Z,25.67
2022-12-02T09:08:42.437Z,27.10
2022-12-02T09:11:09.561Z,25.73
2022-12-02T09:13:36.328Z,23.67
2022-12-02T09:16:03.226Z,23.87
2022-12-02T09:18:29.998Z,22.00
2022-12-02T09:20:56.776Z,20.30
2022-12-02T09:23:23.692Z,21.57
2022-12-02T09:25:50.460Z,23.87
2022-12-02T09:28:17.227Z,22.33
2022-12-02T09:30:44.083Z,21.23
2022-12-02T09:33:10.954Z,20.20
2022-12-02T09:35:37.827Z,20.97
2022-12-02T09:38:04.746Z,21.00
2022-12-02T09:40:33.542Z,20.20
2022-12-02T09:43:01.685Z,19.13
2022-12-02T09:45:28.497Z,18.30
2022-12-02T09:47:55.733Z,18.33
2022-12-02T09:50:22.763Z,18.23
2022-12-02T09:52:49.996Z,18.77
2022-12-02T09:55:19.797Z,19.70
2022-12-02T09:57:46.911Z,20.17
2022-12-02T10:00:19.083Z,19.20
2022-12-02T10:02:48.510Z,19.70
2022-12-02T10:05:24.742Z,18.37
2022-12-02T10:07:54.018Z,17.70
2022-12-02T10:10:35.171Z,20.20
2022-12-02T10:13:07.589Z,16.57
2022-12-02T10:15:35.093Z,18.60
2022-12-02T10:18:09.490Z,16.60
2022-12-02T10:20:36.218Z,19.00
2022-12-02T10:23:18.256Z,17.20
2022-12-02T10:25:47.960Z,16.77
2022-12-02T10:28:30.187Z,16.20
2022-12-02T10:31:10.905Z,16.27
2022-12-02T10:33:40.745Z,16.20
2022-12-02T10:36:07.984Z,16.10
2022-12-02T10:38:41.347Z,15.03
2022-12-02T10:41:24.979Z,16.17
2022-12-02T10:44:13.584Z,15.47
2022-12-02T10:46:40.589Z,15.17
2022-12-02T10:49:18.158Z,14.53
2022-12-02T10:51:44.937Z,15.87
2022-12-02T10:54:23.885Z,15.57
2022-12-02T10:56:50.930Z,14.57
2022-12-02T10:59:17.917Z,14.87
2022-12-02T11:01:45.822Z,12.80
2022-12-02T11:04:16.479Z,13.43
2022-12-02T11:06:44.481Z,13.73
2022-12-02T11:09:40.851Z,14.50
2022-12-02T11:12:34.151Z,13.33
2022-12-02T11:15:01.758Z,14.00
2022-12-02T11:17:50.629Z,13.67
2022-12-02T11:20:30.958Z,15.43
2022-12-02T11:23:00.685Z,13.67
2022-12-02T11:25:47.947Z,13.63
2022-12-02T11:28:29.726Z,12.50
2022-12-02T11:31:12.018Z,11.40
2022-12-02T11:33:58.863Z,11.73
2022-12-02T11:36:33.433Z,11.60
2022-12-02T11:39:04.240Z,12.13
2022-12-02T11:41:52.631Z,10.77
2022-12-02T11:44:29.770Z,11.37
2022-12-02T11:47:01.457Z,11.13
2022-12-02T11:49:38.380Z,11.07
2022-12-02T11:52:16.849Z,11.90
2022-12-02T11:54:59.709Z,12.10
2022-12-02T11:57:30.866Z,11.30
2022-12-02T11:59:58.820Z,9.60
2022-12-02T12:02:26.199Z,10.53
2022-12-02T12:05:00.226Z,9.93
2022-12-02T12:07:45.796Z,9.67
2022-12-02T12:10:35.205Z,9.60
2022-12-02T12:13:24.216Z,11.30
2022-12-02T12:16:02.472Z,11.40
2022-12-02T12:18:48.045Z,9.97
2022-12-02T12:21:35.359Z,9.83
2022-12-02T12:24:17.623Z,10.23
2022-12-02T12:27:33.623Z,9.93
2022-12-02T12:30:00.955Z,8.70
2022-12-02T12:32:27.766Z,8.73
2022-12-02T12:34:55.013Z,9.77
2022-12-02T12:37:21.755Z,8.90
2022-12-02T12:39:48.624Z,9.17
2022-12-02T12:42:15.500Z,9.60
2022-12-02T12:44:42.235Z,9.20
2022-12-02T12:47:08.957Z,9.43
2022-12-02T12:49:35.814Z,8.67
2022-12-02T12:52:02.783Z,7.60
2022-12-02T12:54:29.868Z,7.83
2022-12-02T12:56:56.651Z,8.00
2022-12-02T12:59:23.376Z,8.27
2022-12-02T13:01:50.387Z,8.37
2022-12-02T13:04:17.225Z,8.40
2022-12-02T13:06:44.027Z,8.70
2022-12-02T13:09:12.029Z,8.70
2022-12-02T13:11:39.382Z,9.00
2022-12-02T13:14:06.440Z,8.17
2022-12-02T13:16:33.471Z,8.47
2022-12-02T13:19:00.334Z,9.00
2022-12-02T13:21:27.213Z,8.97
2022-12-02T13:23:55.230Z,8.57
2022-12-02T13:26:22.014Z,7.80
2022-12-02T13:28:52.753Z,8.63
2022-12-02T13:31:19.974Z,8.30
2022-12-02T13:33:47.074Z,7.80
2022-12-02T13:36:14.011Z,8.47
2022-12-02T13:38:41.119Z,9.03
2022-12-02T13:41:08.080Z,8.77
2022-12-02T13:43:34.961Z,7.30
2022-12-02T13:46:02.116Z,8.80
2022-12-02T13:48:29.080Z,7.43
2022-12-02T13:50:55.895Z,9.30
2022-12-02T13:53:22.734Z,8.57
2022-12-02T13:55:49.541Z,7.97
2022-12-02T13:58:16.419Z,9.17
2022-12-02T14:00:43.325Z,7.90
2022-12-02T14:03:10.189Z,7.77
2022-12-02T14:05:37.047Z,7.20
2022-12-02T14:08:04.399Z,7.63
2022-12-02T14:10:31.440Z,7.47
2022-12-02T14:12:58.308Z,7.40
2022-12-02T14:15:25.430Z,7.30
2022-12-02T14:17:52.210Z,7.73
2022-12-02T14:20:19.000Z,8.20
2022-12-02T14:22:45.785Z,7.53
2022-12-02T14:25:13.397Z,8.20
2022-12-02T14:27:40.313Z,8.10
2022-12-02T14:30:07.797Z,9.67
2022-12-02T14:32:34.651Z,8.63
2022-12-02T14:35:01.440Z,8.87
2022-12-02T14:37:28.170Z,8.83
2022-12-02T14:39:54.921Z,8.47
2022-12-02T14:42:21.788Z,8.90
2022-12-02T14:44:48.616Z,8.60
2022-12-02T14:47:15.390Z,8.40
2022-12-02T14:49:45.328Z,8.60
2022-12-02T14:52:12.623Z,9.17
2022-12-02T14:54:39.630Z,8.37
2022-12-02T14:57:06.738Z,8.43
2022-12-02T14:59:33.668Z,9.07
2022-12-02T15:02:00.618Z,9.53
2022-12-02T15:04:28.813Z,8.53
2022-12-02T15:06:56.169Z,9.50
2022-12-02T15:09:23.393Z,8.83
2022-12-02T15:11:52.214Z,9.67
2022-12-02T15:14:19.971Z,9.57
2022-12-02T15:16:47.064Z,9.37
2022-12-02T15:19:13.961Z,8.00
2022-12-02T15:21:40.757Z,9.13
2022-12-02T15:24:07.871Z,11.07
2022-12-02T15:26:34.691Z,9.10
2022-12-02T15:29:01.693Z,9.93
2022-12-02T15:31:28.651Z,9.20
2022-12-02T15:33:55.493Z,9.00
2022-12-02T15:36:22.274Z,10.00
2022-12-02T15:38:49.232Z,9.13
2022-12-02T15:41:16.146Z,8.43
2022-12-02T15:43:44.393Z,9.23
2022-12-02T15:46:12.953Z,9.77
2022-12-02T15:48:39.709Z,8.83
2022-12-02T15:51:06.619Z,9.33
2022-12-02T15:53:33.369Z,9.83
2022-12-02T15:56:00.102Z,10.70
2022-12-02T15:58:26.923Z,9.77
2022-12-02T16:00:53.665Z,10.27
2022-12-02T16:03:20.481Z,11.43
2022-12-02T16:05:47.317Z,11.30
2022-12-02T16:09:42.916Z,11.33
2022-12-02T16:12:09.809Z,10.90
2022-12-02T16:14:36.615Z,10.70
2022-12-02T16:17:03.526Z,12.07
2022-12-02T16:19:30.245Z,11.37
2022-12-02T16:21:56.969Z,11.83
2022-12-02T16:24:23.915Z,11.77
2022-12-02T16:26:55.291Z,11.07
2022-12-02T16:29:22.469Z,12.27
2022-12-02T16:31:49.287Z,12.30
2022-12-02T16:34:16.297Z,11.67
2022-12-02T16:36:43.950Z,13.00
2022-12-02T16:39:10.769Z,12.23
2022-12-02T16:41:37.961Z,11.57
2022-12-02T16:44:05.281Z,12.50
2022-12-02T16:46:33.581Z,11.70
2022-12-02T16:49:00.522Z,11.33
2022-12-02T16:51:27.366Z,12.30
2022-12-02T16:53:54.124Z,12.57
2022-12-02T16:56:20.951Z,11.63
2022-12-02T16:58:47.893Z,12.37
2022-12-02T17:01:14.925Z,10.80
2022-12-02T17:03:41.916Z,12.90
2022-12-02T17:06:08.828Z,11.13
2022-12-02T17:08:35.778Z,13.10
2022-12-02T17:11:02.771Z,11.60
2022-12-02T17:13:29.586Z,12.97
2022-12-02T17:15:56.895Z,12.03
2022-12-02T17:18:23.710Z,12.53
2022-12-02T17:20:55.216Z,10.43
2022-12-02T17:23:22.589Z,11.20
2022-12-02T17:25:49.661Z,11.63
2022-12-02T17:28:16.579Z,11.30
2022-12-02T17:30:43.420Z,12.10
2022-12-02T17:33:10.247Z,11.60
2022-12-02T17:35:37.111Z,15.27
2022-12-02T17:38:04.286Z,10.50
2022-12-02T17:40:31.348Z,10.53
2022-12-02T17:42:58.163Z,10.73
2022-12-02T17:45:24.985Z,10.00
2022-12-02T17:47:51.817Z,10.80
2022-12-02T17:50:18.641Z,10.80
2022-12-02T17:52:45.523Z,10.57
2022-12-02T17:55:14.564Z,9.53
2022-12-02T17:57:43.124Z,10.53
2022-12-02T18:00:11.598Z,10.67
2022-12-02T18:02:38.444Z,9.73
2022-12-02T18:05:05.869Z,10.57
2022-12-02T18:07:32.791Z,10.07
2022-12-02T18:09:59.607Z,10.00
2022-12-02T18:12:26.384Z,10.80
2022-12-02T18:14:53.452Z,10.53
2022-12-02T18:17:20.440Z,22.37
2022-12-02T18:19:47.216Z,11.13
2022-12-02T18:22:14.074Z,10.07
2022-12-02T18:24:40.929Z,10.73
2022-12-02T18:27:07.773Z,10.07
2022-12-02T18:29:34.655Z,10.90
2022-12-02T18:32:01.479Z,11.70
2022-12-02T18:34:28.404Z,9.20
2022-12-02T18:36:55.173Z,9.53
2022-12-02T18:39:21.976Z,9.13
2022-12-02T18:41:48.733Z,9.53
2022-12-02T18:44:15.633Z,8.80
2022-12-02T18:46:42.612Z,9.30
2022-12-02T18:49:09.639Z,9.60
2022-12-02T18:51:36.992Z,9.10
2022-12-02T18:54:03.956Z,9.10
2022-12-02T18:56:31.168Z,9.00
2022-12-02T18:58:58.355Z,8.67
2022-12-02T19:01:29.259Z,10.20
2022-12-02T19:03:59.198Z,8.37
2022-12-02T19:06:26.149Z,9.87
2022-12-02T19:08:53.675Z,9.13
2022-12-02T19:11:20.486Z,8.77
2022-12-02T19:13:47.532Z,9.63
2022-12-02T19:16:14.559Z,8.90
2022-12-02T19:18:41.759Z,8.97
2022-12-02T19:21:09.059Z,9.73
2022-12-02T19:23:35.828Z,10.10
2022-12-02T19:26:02.720Z,9.60
2022-12-02T19:28:29.489Z,9.43
2022-12-02T19:30:56.323Z,10.10
2022-12-02T19:33:23.213Z,8.60
2022-12-02T19:35:50.067Z,9.13
2022-12-02T19:38:16.893Z,10.37
2022-12-02T19:40:45.410Z,9.80
2022-12-02T19:43:13.720Z,10.20
2022-12-02T19:45:40.630Z,9.87
2022-12-02T19:48:07.938Z,8.40
2022-12-02T19:50:34.873Z,9.50
2022-12-02T19:53:01.925Z,10.03
2022-12-02T19:55:28.870Z,9.97
2022-12-02T19:57:55.677Z,10.40
2022-12-02T20:00:22.657Z,9.67
2022-12-02T20:02:49.590Z,9.47
2022-12-02T20:05:18.916Z,9.90
2022-12-02T20:07:45.761Z,9.70
2022-12-02T20:10:13.099Z,8.90
2022-12-02T20:12:39.977Z,8.63
2022-12-02T20:15:07.691Z,9.03
2022-12-02T20:17:34.568Z,9.07
2022-12-02T20:20:01.452Z,8.93
2022-12-02T20:22:28.424Z,9.87
2022-12-02T20:24:55.414Z,9.20
2022-12-02T20:27:22.316Z,9.50
2022-12-02T20:29:49.589Z,9.43
2022-12-02T20:32:18.942Z,10.10
2022-12-02T20:34:46.706Z,9.30
2022-12-02T20:37:13.949Z,10.60
2022-12-02T20:39:42.769Z,9.93
2022-12-02T20:42:10.474Z,9.87
2022-12-02T20:44:37.304Z,10.60
2022-12-02T20:47:04.199Z,10.80
2022-12-02T20:49:31.104Z,10.70
2022-12-02T20:51:58.090Z,9.70
2022-12-02T20:54:26.118Z,10.67
2022-12-02T20:56:53.066Z,10.60
2022-12-02T20:59:19.921Z,10.37
2022-12-02T21:01:46.828Z,10.50
2022-12-02T21:04:13.911Z,11.10
2022-12-02T21:06:41.071Z,11.10
2022-12-02T21:09:07.950Z,11.97
2022-12-02T21:11:34.898Z,11.83
2022-12-02T21:14:01.798Z,11.90
2022-12-02T21:16:28.567Z,11.90
2022-12-02T21:18:55.571Z,11.13
2022-12-02T21:21:23.573Z,12.30
2022-12-02T21:23:50.502Z,13.07
2022-12-02T21:26:17.359Z,11.80
2022-12-02T21:28:44.401Z,12.00
2022-12-02T21:31:11.478Z,12.13
2022-12-02T21:33:38.367Z,11.97
2022-12-02T21:36:05.619Z,11.70
2022-12-02T21:38:32.650Z,11.23
2022-12-02T21:40:59.760Z,12.40
2022-12-02T21:43:26.948Z,12.97
2022-12-02T21:45:53.844Z,12.27
2022-12-02T21:48:20.829Z,13.13
2022-12-02T21:50:47.717Z,12.73
2022-12-02T21:53:14.606Z,13.17
2022-12-02T21:55:41.706Z,13.13
2022-12-02T21:58:08.540Z,12.10
2022-12-02T22:00:35.507Z,12.70
2022-12-02T22:03:02.868Z,13.20
2022-12-02T22:05:29.769Z,14.43
2022-12-02T22:07:56.657Z,15.23
2022-12-02T22:10:25.824Z,14.80
2022-12-02T22:12:53.073Z,16.43
2022-12-02T22:15:21.874Z,15.40
2022-12-02T22:17:48.915Z,15.40
2022-12-02T22:20:17.970Z,16.07
2022-12-02T22:22:44.855Z,16.53
2022-12-02T22:25:11.701Z,17.10
2022-12-02T22:27:38.480Z,15.73
2022-12-02T22:30:07.265Z,17.30
2022-12-02T22:32:35.275Z,17.00
2022-12-02T22:35:03.012Z,16.03
2022-12-02T22:37:29.996Z,16.20
2022-12-02T22:39:56.948Z,17.10
2022-12-02T22:42:24.117Z,16.97
2022-12-02T22:44:51.437Z,15.97
2022-12-02T22:47:18.482Z,16.97
2022-12-02T22:49:45.467Z,17.50
2022-12-02T22:52:12.224Z,16.53
2022-12-02T22:54:39.119Z,18.47
2022-12-02T22:57:06.049Z,17.50
2022-12-02T22:59:32.833Z,18.03
2022-12-02T23:01:59.759Z,17.70
2022-12-02T23:04:26.674Z,17.63
2022-12-02T23:06:53.422Z,17.80
2022-12-02T23:09:20.547Z,16.40
2022-12-02T23:11:47.336Z,14.90
2022-12-02T23:14:14.149Z,14.97
2022-12-02T23:16:41.053Z,16.47
2022-12-02T23:19:07.885Z,16.10
2022-12-02T23:21:34.661Z,15.60
2022-12-02T23:24:01.446Z,16.43
2022-12-02T23:26:28.288Z,15.90
2022-12-02T23:28:55.030Z,14.57
2022-12-02T23:31:21.915Z,15.53
2022-12-02T23:33:48.762Z,15.03
2022-12-02T23:36:15.569Z,15.70
2022-12-02T23:38:42.523Z,15.63
2022-12-02T23:41:09.383Z,16.97
2022-12-02T23:43:36.134Z,16.23
2022-12-02T23:46:03.285Z,16.00
2022-12-02T23:48:30.182Z,16.83
2022-12-02T23:50:56.945Z,16.07
2022-12-02T23:53:23.806Z,15.63
2022-12-02T23:55:50.679Z,17.00
2022-12-02T23:58:17.485Z,15.43
